Time;durP1;ratioP1;P1;durP2;ratioP2;P2;SDS_P1;SDS_P2;PMS_P1;PMS_P2;Temp;Humidity;BMP_temperature;BMP_pressure;BME280_temperature;BME280_humidity;BME280_pressure;Samples;Min_cycle;Max_cycle;Signal;HPM_P1;HPM_P2
2023/09/27 00:00:54;;;;;;;15.80;12.20;;;;;;;;;;5074844;28;20021;-66
2023/09/27 00:03:19;;;;;;;18.13;14.00;;;;;;;;;;5074835;28;20028;-66
2023/09/27 00:05:46;;;;;;;19.42;14.77;;;;;;;;;;5056825;28;20032;-66
2023/09/27 00:08:11;;;;;;;18.23;14.32;;;;;;;;;;5074462;28;20043;-66
2023/09/27 00:10:37;;;;;;;17.52;11.93;;;;;;;;;;5074838;28;20029;-66
2023/09/27 00:13:02;;;;;;;13.05;10.90;;;;;;;;;;5074684;28;20028;-66
2023/09/27 00:15:28;;;;;;;14.88;11.35;;;;;;;;;;5074548;28;20421;-66
2023/09/27 00:17:54;;;;;;;11.48;9.77;;;;;;;;;;5074654;28;20072;-66
2023/09/27 00:20:20;;;;;;;11.38;10.02;;;;;;;;;;5074081;28;20028;-66
2023/09/27 00:22:45;;;;;;;12.02;9.10;;;;;;;;;;5074334;28;20043;-66
2023/09/27 00:25:11;;;;;;;10.95;9.73;;;;;;;;;;5074073;28;20020;-67
2023/09/27 00:27:37;;;;;;;11.32;10.05;;;;;;;;;;5074437;28;20489;-68
2023/09/27 00:30:07;;;;;;;13.20;10.27;;;;;;;;;;5074252;28;20089;-67
2023/09/27 00:32:32;;;;;;;;;;;;;;;;;;5074529;28;20137;-67
2023/09/27 00:34:58;;;;;;;11.50;9.20;;;;;;;;;;5074067;28;20301;-67
2023/09/27 00:37:24;;;;;;;10.52;9.43;;;;;;;;;;5074485;28;20052;-67
2023/09/27 00:39:50;;;;;;;10.63;9.38;;;;;;;;;;5073796;28;20111;-67
2023/09/27 00:42:15;;;;;;;10.48;9.48;;;;;;;;;;5055851;28;20040;-67
2023/09/27 00:44:41;;;;;;;10.55;9.55;;;;;;;;;;5072520;28;20024;-66
2023/09/27 00:47:06;;;;;;;12.18;9.30;;;;;;;;;;5072541;28;20419;-66
2023/09/27 00:49:32;;;;;;;13.43;10.13;;;;;;;;;;5073871;28;20470;-66
2023/09/27 00:51:58;;;;;;;13.63;10.02;;;;;;;;;;5073929;28;20016;-67
2023/09/27 00:54:23;;;;;;;12.73;10.70;;;;;;;;;;5072452;28;20024;-66
2023/09/27 00:56:51;;;;;;;12.77;10.35;;;;;;;;;;5065524;28;20037;-66
2023/09/27 00:59:17;;;;;;;11.68;8.73;;;;;;;;;;5076334;28;20130;-69
2023/09/27 01:01:44;;;;;;;10.13;8.68;;;;;;;;;;5092844;28;20111;-68
2023/09/27 01:04:10;;;;;;;9.55;8.40;;;;;;;;;;5059467;28;20069;-68
2023/09/27 01:06:36;;;;;;;9.93;8.73;;;;;;;;;;5075654;28;20016;-68
2023/09/27 01:09:03;;;;;;;9.05;8.05;;;;;;;;;;5075592;28;20035;-68
2023/09/27 01:11:28;;;;;;;10.57;8.55;;;;;;;;;;5093926;28;20032;-68
2023/09/27 01:13:54;;;;;;;9.10;8.13;;;;;;;;;;5094380;28;20082;-68
2023/09/27 01:16:19;;;;;;;9.02;8.20;;;;;;;;;;5094097;28;20126;-68
2023/09/27 01:18:45;;;;;;;9.10;8.18;;;;;;;;;;5075346;28;20036;-68
2023/09/27 01:21:10;;;;;;;8.60;7.72;;;;;;;;;;5093741;28;20048;-68
2023/09/27 01:23:38;;;;;;;8.60;7.80;;;;;;;;;;5093699;28;20113;-66
2023/09/27 01:26:06;;;;;;;10.13;8.60;;;;;;;;;;5095889;28;20047;-66
2023/09/27 01:28:33;;;;;;;8.13;7.28;;;;;;;;;;5097880;28;20164;-67
2023/09/27 01:30:58;;;;;;;8.10;7.28;;;;;;;;;;5098022;28;20109;-67
2023/09/27 01:33:25;;;;;;;7.72;6.97;;;;;;;;;;5080535;28;20070;-67
2023/09/27 01:35:51;;;;;;;8.73;7.80;;;;;;;;;;5079636;28;20032;-67
2023/09/27 01:38:16;;;;;;;8.63;7.72;;;;;;;;;;5097916;28;20386;-67
2023/09/27 01:40:43;;;;;;;9.57;8.10;;;;;;;;;;5097392;28;20051;-67
2023/09/27 01:43:10;;;;;;;10.70;7.90;;;;;;;;;;5097615;28;20408;-66
2023/09/27 01:45:36;;;;;;;8.90;7.18;;;;;;;;;;5097408;28;20016;-67
2023/09/27 01:48:02;;;;;;;8.73;7.25;;;;;;;;;;5079195;28;20028;-68
2023/09/27 01:50:28;;;;;;;7.88;6.75;;;;;;;;;;5097615;28;20153;-67
2023/09/27 01:52:55;;;;;;;7.18;6.38;;;;;;;;;;5097737;28;20424;-67
2023/09/27 01:55:22;;;;;;;8.50;7.80;;;;;;;;;;5097333;28;20078;-66
2023/09/27 01:57:47;;;;;;;8.60;7.80;;;;;;;;;;5097023;28;20036;-66
2023/09/27 02:00:14;;;;;;;7.72;7.03;;;;;;;;;;5079299;28;20122;-66
2023/09/27 02:02:40;;;;;;;6.70;6.10;;;;;;;;;;5095758;28;20024;-66
2023/09/27 02:05:06;;;;;;;8.25;7.07;;;;;;;;;;5078726;28;20020;-68
2023/09/27 02:07:31;;;;;;;9.65;6.32;;;;;;;;;;5097196;28;20080;-68
2023/09/27 02:09:57;;;;;;;7.53;6.75;;;;;;;;;;5078758;28;20378;-68
2023/09/27 02:12:22;;;;;;;7.20;6.60;;;;;;;;;;5097029;28;20032;-69
2023/09/27 02:14:48;;;;;;;7.57;6.88;;;;;;;;;;5095585;28;20035;-68
2023/09/27 02:17:13;;;;;;;9.55;7.40;;;;;;;;;;5095577;28;20039;-68
2023/09/27 02:19:40;;;;;;;8.20;7.38;;;;;;;;;;5078458;28;20030;-68
2023/09/27 02:22:06;;;;;;;7.93;7.15;;;;;;;;;;5097294;28;20370;-68
2023/09/27 02:24:33;;;;;;;7.80;6.95;;;;;;;;;;5078506;28;20012;-68
2023/09/27 02:26:59;;;;;;;7.72;7.03;;;;;;;;;;5097138;28;20043;-68
2023/09/27 02:29:25;;;;;;;7.50;6.80;;;;;;;;;;5096960;28;20032;-65
2023/09/27 02:31:53;;;;;;;6.97;6.13;;;;;;;;;;5091603;22;20051;-60
2023/09/27 02:34:19;;;;;;;7.35;6.70;;;;;;;;;;5078090;28;20019;-65
2023/09/27 02:36:45;;;;;;;7.07;6.40;;;;;;;;;;5096677;28;20401;-65
2023/09/27 02:39:11;;;;;;;8.18;6.55;;;;;;;;;;5096619;28;20032;-65
2023/09/27 02:41:36;;;;;;;6.68;5.93;;;;;;;;;;5096535;28;20020;-65
2023/09/27 02:44:02;;;;;;;7.07;6.28;;;;;;;;;;5096390;28;20077;-65
2023/09/27 02:46:29;;;;;;;5.65;5.18;;;;;;;;;;5078118;28;20477;-65
2023/09/27 02:48:54;;;;;;;8.43;5.72;;;;;;;;;;5096734;28;20024;-65
2023/09/27 02:51:20;;;;;;;6.65;5.72;;;;;;;;;;5078176;28;20600;-66
2023/09/27 02:53:45;;;;;;;7.38;6.03;;;;;;;;;;5096657;28;20392;-67
2023/09/27 02:56:11;;;;;;;9.70;6.03;;;;;;;;;;5078127;28;20036;-68
2023/09/27 02:58:37;;;;;;;6.05;5.47;;;;;;;;;;5095894;28;20035;-68
2023/09/27 03:01:02;;;;;;;6.05;5.47;;;;;;;;;;5078423;28;20364;-68
2023/09/27 03:03:30;;;;;;;6.10;5.50;;;;;;;;;;5096303;28;20031;-68
2023/09/27 03:05:57;;;;;;;6.25;5.63;;;;;;;;;;5093443;28;20055;-68
2023/09/27 03:08:23;;;;;;;5.65;4.95;;;;;;;;;;5096003;28;20024;-67
2023/09/27 03:10:48;;;;;;;6.13;5.20;;;;;;;;;;5078048;28;20034;-67
2023/09/27 03:13:14;;;;;;;6.35;5.03;;;;;;;;;;5095127;28;20515;-67
2023/09/27 03:15:40;;;;;;;6.28;5.65;;;;;;;;;;5074273;28;20025;-68
2023/09/27 03:18:06;;;;;;;7.35;5.18;;;;;;;;;;5076720;28;20028;-68
2023/09/27 03:20:32;;;;;;;5.93;5.43;;;;;;;;;;5077402;28;20081;-68
2023/09/27 03:22:57;;;;;;;7.20;5.70;;;;;;;;;;5095619;28;20091;-66
2023/09/27 03:25:23;;;;;;;6.78;5.88;;;;;;;;;;5088929;28;20055;-66
2023/09/27 03:27:48;;;;;;;6.45;5.55;;;;;;;;;;5094527;28;20032;-66
2023/09/27 03:30:14;;;;;;;7.82;5.68;;;;;;;;;;5095571;28;20035;-65
2023/09/27 03:32:40;;;;;;;6.63;5.70;;;;;;;;;;5095774;28;20068;-66
2023/09/27 03:35:07;;;;;;;8.48;5.82;;;;;;;;;;5094032;28;20112;-66
2023/09/27 03:37:34;;;;;;;6.25;5.65;;;;;;;;;;5095308;28;20077;-66
2023/09/27 03:40:00;;;;;;;6.25;5.55;;;;;;;;;;5094173;28;20070;-66
2023/09/27 03:42:26;;;;;;;6.28;5.65;;;;;;;;;;5076789;28;20067;-68
2023/09/27 03:44:54;;;;;;;8.95;6.32;;;;;;;;;;5093912;28;20439;-68
2023/09/27 03:47:20;;;;;;;7.72;5.75;;;;;;;;;;5094919;28;20081;-68
2023/09/27 03:49:46;;;;;;;6.78;6.10;;;;;;;;;;5093971;28;20024;-68
2023/09/27 03:52:12;;;;;;;8.80;5.68;;;;;;;;;;5094209;28;20060;-69
2023/09/27 03:54:37;;;;;;;6.05;5.57;;;;;;;;;;5076510;28;20039;-69
2023/09/27 03:57:04;;;;;;;6.55;5.70;;;;;;;;;;5076956;28;20031;-69
2023/09/27 03:59:29;;;;;;;6.18;5.63;;;;;;;;;;5076608;28;20028;-68
2023/09/27 04:01:55;;;;;;;6.95;5.60;;;;;;;;;;5093500;28;20024;-71
2023/09/27 04:04:21;;;;;;;6.55;5.55;;;;;;;;;;5091605;28;20028;-68
2023/09/27 04:06:46;;;;;;;8.32;5.85;;;;;;;;;;5072423;28;20024;-64
2023/09/27 04:09:12;;;;;;;7.32;5.70;;;;;;;;;;5076096;28;20024;-64
2023/09/27 04:11:37;;;;;;;6.03;5.43;;;;;;;;;;5094653;28;20032;-64
2023/09/27 04:14:06;;;;;;;6.88;5.72;;;;;;;;;;5093988;28;20068;-64
2023/09/27 04:16:32;;;;;;;7.90;6.10;;;;;;;;;;5094601;28;20500;-63
2023/09/27 04:18:58;;;;;;;6.85;6.15;;;;;;;;;;5094636;28;20082;-64
2023/09/27 04:21:24;;;;;;;7.70;6.40;;;;;;;;;;5094474;28;20385;-64
2023/09/27 04:23:56;;;;;;;9.02;6.95;;;;;;;;;;5094363;28;20043;-64
2023/09/27 04:26:23;;;;;;;7.50;6.68;;;;;;;;;;5094327;28;20047;-64
2023/09/27 04:28:49;;;;;;;7.40;6.57;;;;;;;;;;5094208;28;20065;-63
2023/09/27 04:31:15;;;;;;;8.85;6.47;;;;;;;;;;5093985;28;20432;-63
2023/09/27 04:33:44;;;;;;;7.18;6.45;;;;;;;;;;5093951;28;20057;-62
2023/09/27 04:36:15;;;;;;;6.50;5.80;;;;;;;;;;5093901;28;20024;-62
2023/09/27 04:38:41;;;;;;;8.07;5.90;;;;;;;;;;5093970;28;20028;-65
2023/09/27 04:41:06;;;;;;;6.57;6.05;;;;;;;;;;5094385;28;20027;-63
2023/09/27 04:43:32;;;;;;;7.15;6.13;;;;;;;;;;5076253;28;20335;-64
2023/09/27 04:45:57;;;;;;;7.35;6.05;;;;;;;;;;5094380;28;20091;-64
2023/09/27 04:48:23;;;;;;;6.03;5.38;;;;;;;;;;5093198;28;20128;-65
2023/09/27 04:50:48;;;;;;;7.80;5.75;;;;;;;;;;5093538;28;20070;-62
2023/09/27 04:53:13;;;;;;;9.73;6.13;;;;;;;;;;5092624;28;20024;-62
2023/09/27 04:55:39;;;;;;;5.85;5.35;;;;;;;;;;5093933;28;20081;-63
2023/09/27 04:58:06;;;;;;;6.22;5.28;;;;;;;;;;5094146;28;20377;-63
2023/09/27 05:00:31;;;;;;;12.07;5.93;;;;;;;;;;5093107;28;20036;-63
2023/09/27 05:02:56;;;;;;;6.97;5.68;;;;;;;;;;5093835;28;20031;-63
2023/09/27 05:05:22;;;;;;;6.28;5.55;;;;;;;;;;5092546;28;20023;-63
2023/09/27 05:07:48;;;;;;;5.80;5.22;;;;;;;;;;5093133;28;20024;-63
2023/09/27 05:10:13;;;;;;;7.22;6.40;;;;;;;;;;5093826;28;20020;-63
2023/09/27 05:12:39;;;;;;;8.45;6.10;;;;;;;;;;5093715;28;20114;-63
2023/09/27 05:15:06;;;;;;;10.43;5.95;;;;;;;;;;5092328;28;20028;-63
2023/09/27 05:17:31;;;;;;;6.75;6.07;;;;;;;;;;5074623;28;20458;-63
2023/09/27 05:19:57;;;;;;;6.63;5.53;;;;;;;;;;5093083;28;20086;-63
2023/09/27 05:22:22;;;;;;;8.93;6.25;;;;;;;;;;5091951;28;20040;-63
2023/09/27 05:24:47;;;;;;;7.80;5.95;;;;;;;;;;5091991;28;20375;-63
2023/09/27 05:27:13;;;;;;;10.73;6.75;;;;;;;;;;5090055;28;20537;-63
2023/09/27 05:29:39;;;;;;;6.78;6.18;;;;;;;;;;5089747;28;20032;-63
2023/09/27 05:32:04;;;;;;;8.52;6.70;;;;;;;;;;5091083;28;20098;-63
2023/09/27 05:34:30;;;;;;;10.45;6.93;;;;;;;;;;5091723;28;20063;-63
2023/09/27 05:36:56;;;;;;;9.60;6.47;;;;;;;;;;5091679;28;20431;-63
2023/09/27 05:39:22;;;;;;;11.60;7.38;;;;;;;;;;5091648;28;20032;-62
2023/09/27 05:41:47;;;;;;;9.60;6.68;;;;;;;;;;5090609;28;20374;-62
2023/09/27 05:44:13;;;;;;;7.13;6.30;;;;;;;;;;5074002;28;20028;-62
2023/09/27 05:46:40;;;;;;;9.43;6.88;;;;;;;;;;5092820;28;20154;-62
2023/09/27 05:49:08;;;;;;;10.07;6.13;;;;;;;;;;5075014;28;20035;-63
2023/09/27 05:51:34;;;;;;;8.27;6.68;;;;;;;;;;5093105;28;20032;-63
2023/09/27 05:53:59;;;;;;;7.53;6.70;;;;;;;;;;5091832;28;20038;-63
2023/09/27 05:56:25;;;;;;;7.43;6.28;;;;;;;;;;5092989;28;20524;-63
2023/09/27 05:58:51;;;;;;;9.50;6.88;;;;;;;;;;5092880;28;20032;-63
2023/09/27 06:01:19;;;;;;;10.95;6.55;;;;;;;;;;5093015;28;20051;-63
2023/09/27 06:03:45;;;;;;;9.25;6.80;;;;;;;;;;5091795;28;20103;-63
2023/09/27 06:06:12;;;;;;;9.32;6.32;;;;;;;;;;5092963;28;20111;-63
2023/09/27 06:08:37;;;;;;;9.32;6.60;;;;;;;;;;5092863;28;20019;-63
2023/09/27 06:11:03;;;;;;;7.60;6.78;;;;;;;;;;5093285;28;20119;-63
2023/09/27 06:13:29;;;;;;;7.15;6.40;;;;;;;;;;5095396;28;20032;-63
2023/09/27 06:15:54;;;;;;;7.25;6.60;;;;;;;;;;5096551;28;20047;-63
2023/09/27 06:18:20;;;;;;;8.13;6.78;;;;;;;;;;5078357;28;20036;-63
2023/09/27 06:20:47;;;;;;;7.78;6.63;;;;;;;;;;5096392;28;20098;-62
2023/09/27 06:23:12;;;;;;;7.63;6.80;;;;;;;;;;5096407;28;20032;-62
2023/09/27 06:25:39;;;;;;;8.23;6.63;;;;;;;;;;5096339;28;20042;-62
2023/09/27 06:28:05;;;;;;;7.78;6.50;;;;;;;;;;5096327;28;20466;-63
2023/09/27 06:30:30;;;;;;;10.60;6.75;;;;;;;;;;5096224;28;20036;-63
2023/09/27 06:32:56;;;;;;;8.88;7.05;;;;;;;;;;5096069;28;20040;-63
2023/09/27 06:35:21;;;;;;;8.75;6.93;;;;;;;;;;5096155;28;20032;-62
2023/09/27 06:37:49;;;;;;;9.82;6.93;;;;;;;;;;5096127;28;20035;-62
2023/09/27 06:40:16;;;;;;;9.68;7.05;;;;;;;;;;5096083;28;20153;-62
2023/09/27 06:42:45;;;;;;;9.25;7.47;;;;;;;;;;5096243;28;20023;-62
2023/09/27 06:45:11;;;;;;;9.05;6.70;;;;;;;;;;5096010;28;20297;-62
2023/09/27 06:47:38;;;;;;;8.07;7.18;;;;;;;;;;5096079;28;20106;-62
2023/09/27 06:50:04;;;;;;;10.63;7.07;;;;;;;;;;5095898;28;20028;-62
2023/09/27 06:52:30;;;;;;;8.73;7.13;;;;;;;;;;5095937;28;20039;-62
2023/09/27 06:54:56;;;;;;;8.40;7.25;;;;;;;;;;5077782;28;20028;-62
2023/09/27 06:57:21;;;;;;;9.20;6.90;;;;;;;;;;5095733;28;20036;-62
2023/09/27 06:59:47;;;;;;;9.10;7.18;;;;;;;;;;5094521;28;20043;-62
2023/09/27 07:02:12;;;;;;;7.25;6.57;;;;;;;;;;5095648;28;20070;-62
2023/09/27 07:04:38;;;;;;;7.45;6.68;;;;;;;;;;5095658;28;20129;-62
2023/09/27 07:07:04;;;;;;;7.97;6.80;;;;;;;;;;5095584;28;20367;-62
2023/09/27 07:09:32;;;;;;;9.70;5.85;;;;;;;;;;5095544;28;20043;-62
2023/09/27 07:11:58;;;;;;;8.07;6.47;;;;;;;;;;5095505;28;20385;-62
2023/09/27 07:14:23;;;;;;;7.78;6.25;;;;;;;;;;5094175;28;20028;-62
2023/09/27 07:16:49;;;;;;;8.63;6.28;;;;;;;;;;5095470;28;20072;-62
2023/09/27 07:19:15;;;;;;;7.03;6.18;;;;;;;;;;5095222;28;20103;-62
2023/09/27 07:21:41;;;;;;;8.18;5.63;;;;;;;;;;5095246;28;20028;-62
2023/09/27 07:24:09;;;;;;;8.35;6.00;;;;;;;;;;5094453;28;20135;-62
2023/09/27 07:26:35;;;;;;;5.65;5.18;;;;;;;;;;5095176;28;20032;-62
2023/09/27 07:29:00;;;;;;;8.15;6.18;;;;;;;;;;5095104;28;20081;-62
2023/09/27 07:31:26;;;;;;;7.93;6.90;;;;;;;;;;5092345;28;20103;-62
2023/09/27 07:33:54;;;;;;;6.18;5.63;;;;;;;;;;5094966;28;20098;-62
2023/09/27 07:36:26;;;;;;;7.13;6.43;;;;;;;;;;5094932;28;20059;-62
2023/09/27 07:38:52;;;;;;;10.45;6.03;;;;;;;;;;5093603;28;20085;-62
2023/09/27 07:41:17;;;;;;;9.93;5.22;;;;;;;;;;5093686;28;20428;-62
2023/09/27 07:43:43;;;;;;;7.13;5.97;;;;;;;;;;5094833;28;20023;-62
2023/09/27 07:46:08;;;;;;;7.60;5.82;;;;;;;;;;5094813;28;20032;-62
2023/09/27 07:48:37;;;;;;;9.30;5.90;;;;;;;;;;5076754;28;20016;-62
2023/09/27 07:51:09;;;;;;;7.85;5.95;;;;;;;;;;5094700;28;20077;-62
2023/09/27 07:53:35;;;;;;;6.90;6.15;;;;;;;;;;5094672;28;20466;-62
2023/09/27 07:56:01;;;;;;;7.47;6.20;;;;;;;;;;5094588;28;20031;-62
2023/09/27 07:58:26;;;;;;;5.93;5.43;;;;;;;;;;5094596;28;20064;-62
2023/09/27 08:00:52;;;;;;;6.18;5.45;;;;;;;;;;5093190;28;20116;-62
2023/09/27 08:03:19;;;;;;;8.15;6.78;;;;;;;;;;5094480;28;20466;-62
2023/09/27 08:05:45;;;;;;;9.45;6.50;;;;;;;;;;5094482;28;20032;-62
2023/09/27 08:08:11;;;;;;;7.30;5.88;;;;;;;;;;5094402;28;20031;-62
2023/09/27 08:10:43;;;;;;;6.32;5.72;;;;;;;;;;5094414;28;20474;-62
2023/09/27 08:13:09;;;;;;;7.13;5.82;;;;;;;;;;5094318;28;20040;-62
2023/09/27 08:15:34;;;;;;;11.93;6.22;;;;;;;;;;5094327;28;20016;-62
2023/09/27 08:17:59;;;;;;;8.05;5.97;;;;;;;;;;5094169;28;20043;-62
2023/09/27 08:20:25;;;;;;;6.18;5.50;;;;;;;;;;5094173;28;20028;-62
2023/09/27 08:22:50;;;;;;;5.78;4.53;;;;;;;;;;5094169;28;20032;-62
2023/09/27 08:25:16;;;;;;;6.47;4.65;;;;;;;;;;5094105;28;20024;-62
2023/09/27 08:27:42;;;;;;;4.72;4.32;;;;;;;;;;5093993;28;20039;-62
2023/09/27 08:30:07;;;;;;;4.95;4.53;;;;;;;;;;5094084;28;20084;-62
2023/09/27 08:32:34;;;;;;;7.22;4.78;;;;;;;;;;5093762;28;20047;-62
2023/09/27 08:34:59;;;;;;;5.63;4.45;;;;;;;;;;5093786;28;20032;-62
2023/09/27 08:37:25;;;;;;;55.13;6.72;;;;;;;;;;5075776;28;20061;-62
2023/09/27 08:39:50;;;;;;;6.28;5.53;;;;;;;;;;5093837;28;20032;-62
2023/09/27 08:42:15;;;;;;;4.97;4.57;;;;;;;;;;5093844;28;20020;-62
2023/09/27 08:44:41;;;;;;;9.27;5.07;;;;;;;;;;5093734;28;20430;-62
2023/09/27 08:47:06;;;;;;;8.52;4.57;;;;;;;;;;5093798;28;20028;-62
2023/09/27 08:49:32;;;;;;;4.15;3.78;;;;;;;;;;5093735;28;20031;-62
2023/09/27 08:51:57;;;;;;;5.05;3.85;;;;;;;;;;5093713;28;20428;-62
2023/09/27 08:54:23;;;;;;;8.68;4.82;;;;;;;;;;5093652;28;20035;-62
2023/09/27 08:56:50;;;;;;;7.85;4.93;;;;;;;;;;5093708;28;20050;-62
2023/09/27 08:59:17;;;;;;;6.93;4.30;;;;;;;;;;5093631;28;20074;-62
2023/09/27 09:01:43;;;;;;;6.07;5.15;;;;;;;;;;5093632;28;20034;-62
2023/09/27 09:04:08;;;;;;;8.20;4.75;;;;;;;;;;5075470;28;20366;-62
2023/09/27 09:06:35;;;;;;;5.38;4.80;;;;;;;;;;5075481;28;20115;-62
2023/09/27 09:09:04;;;;;;;9.35;5.72;;;;;;;;;;5075426;28;20233;-62
2023/09/27 09:11:31;;;;;;;5.90;5.30;;;;;;;;;;5093562;28;20108;-62
2023/09/27 09:13:57;;;;;;;10.32;5.43;;;;;;;;;;5075495;28;20080;-62
2023/09/27 09:16:23;;;;;;;7.47;4.55;;;;;;;;;;5093462;28;20024;-62
2023/09/27 09:18:54;;;;;;;9.88;5.15;;;;;;;;;;5093463;28;20146;-62
2023/09/27 09:21:20;;;;;;;7.53;5.15;;;;;;;;;;5075267;28;20036;-62
2023/09/27 09:23:49;;;;;;;8.07;4.88;;;;;;;;;;5075391;28;20028;-62
2023/09/27 09:26:25;;;;;;;5.70;3.92;;;;;;;;;;5093289;28;20032;-62
2023/09/27 09:28:59;;;;;;;9.32;4.80;;;;;;;;;;5093324;28;20466;-62
2023/09/27 09:31:26;;;;;;;4.55;3.45;;;;;;;;;;5092375;28;20073;-62
2023/09/27 09:34:12;;;;;;;4.47;3.67;;;;;;;;;;5093328;28;20497;-62
2023/09/27 09:36:37;;;;;;;4.10;3.80;;;;;;;;;;5093215;28;20024;-62
2023/09/27 09:39:13;;;;;;;5.45;3.65;;;;;;;;;;5092250;28;20087;-62
2023/09/27 09:41:48;;;;;;;5.70;3.33;;;;;;;;;;5093271;28;20028;-62
2023/09/27 09:44:18;;;;;;;5.07;4.63;;;;;;;;;;5093200;28;20024;-62
2023/09/27 09:46:44;;;;;;;3.97;3.35;;;;;;;;;;5094795;28;20028;-63
2023/09/27 09:49:10;;;;;;;4.18;3.25;;;;;;;;;;5097115;28;20024;-62
2023/09/27 09:51:37;;;;;;;6.63;4.55;;;;;;;;;;5097025;28;20020;-62
2023/09/27 09:54:06;;;;;;;7.50;3.88;;;;;;;;;;5096982;28;20033;-62
2023/09/27 09:56:34;;;;;;;6.45;4.30;;;;;;;;;;5097030;28;20243;-62
2023/09/27 09:59:03;;;;;;;6.90;3.85;;;;;;;;;;5096834;28;20059;-62
2023/09/27 10:01:31;;;;;;;5.07;3.45;;;;;;;;;;5096930;28;20028;-62
2023/09/27 10:04:01;;;;;;;6.43;3.10;;;;;;;;;;5078810;28;20032;-63
2023/09/27 10:06:29;;;;;;;8.05;3.28;;;;;;;;;;5096860;28;20032;-62
2023/09/27 10:08:55;;;;;;;8.05;3.67;;;;;;;;;;5096808;28;20024;-62
2023/09/27 10:11:23;;;;;;;5.22;3.30;;;;;;;;;;5078548;28;20024;-62
2023/09/27 10:13:48;;;;;;;5.78;3.40;;;;;;;;;;5078593;28;20124;-62
2023/09/27 10:16:16;;;;;;;6.40;3.20;;;;;;;;;;5096600;28;20479;-62
2023/09/27 10:18:42;;;;;;;6.03;4.13;;;;;;;;;;5096821;28;20031;-62
2023/09/27 10:21:09;;;;;;;7.47;4.60;;;;;;;;;;5096484;28;20024;-62
2023/09/27 10:23:46;;;;;;;5.32;4.63;;;;;;;;;;5096459;28;20036;-62
2023/09/27 10:26:31;;;;;;;6.82;3.92;;;;;;;;;;5096455;28;20071;-62
2023/09/27 10:29:18;;;;;;;5.43;4.20;;;;;;;;;;5096374;28;20031;-62
2023/09/27 10:32:00;;;;;;;5.32;4.78;;;;;;;;;;5094927;28;20542;-62
2023/09/27 10:34:25;;;;;;;7.70;3.97;;;;;;;;;;5096148;28;20028;-62
2023/09/27 10:36:51;;;;;;;7.15;3.83;;;;;;;;;;5096364;28;20038;-62
2023/09/27 10:39:17;;;;;;;6.20;4.10;;;;;;;;;;5096201;28;20032;-62
2023/09/27 10:41:46;;;;;;;10.05;3.63;;;;;;;;;;5096131;28;20028;-62
2023/09/27 10:44:12;;;;;;;7.75;4.20;;;;;;;;;;5078134;28;20119;-62
2023/09/27 10:46:45;;;;;;;6.20;3.90;;;;;;;;;;5078066;28;20032;-62
2023/09/27 10:49:10;;;;;;;6.38;4.13;;;;;;;;;;5096065;28;20051;-62
2023/09/27 10:51:36;;;;;;;7.22;4.53;;;;;;;;;;5095928;28;20109;-62
2023/09/27 10:54:09;;;;;;;8.48;4.68;;;;;;;;;;5095836;28;20024;-62
2023/09/27 10:56:35;;;;;;;7.78;4.32;;;;;;;;;;5095806;28;20056;-62
2023/09/27 10:59:02;;;;;;;3.90;3.47;;;;;;;;;;5094331;28;20062;-62
2023/09/27 11:01:28;;;;;;;5.10;3.80;;;;;;;;;;5095743;28;20020;-62
2023/09/27 11:04:00;;;;;;;3.60;3.30;;;;;;;;;;5095670;28;20141;-62
2023/09/27 11:06:25;;;;;;;5.45;4.53;;;;;;;;;;5095709;28;20504;-62
2023/09/27 11:08:50;;;;;;;4.85;3.53;;;;;;;;;;5095643;28;20141;-62
2023/09/27 11:11:16;;;;;;;4.53;3.90;;;;;;;;;;5095536;28;20114;-62
2023/09/27 11:13:43;;;;;;;6.40;4.72;;;;;;;;;;5095425;28;20031;-62
2023/09/27 11:16:09;;;;;;;8.65;4.95;;;;;;;;;;5095441;28;20016;-62
2023/09/27 11:18:35;;;;;;;4.22;3.58;;;;;;;;;;5095418;28;20035;-62
2023/09/27 11:21:09;;;;;;;4.28;3.25;;;;;;;;;;5095256;28;20115;-62
2023/09/27 11:23:54;;;;;;;6.22;3.13;;;;;;;;;;5095299;28;20020;-62
2023/09/27 11:26:20;;;;;;;4.47;3.00;;;;;;;;;;5095243;28;20028;-62
2023/09/27 11:29:07;;;;;;;4.45;3.03;;;;;;;;;;5095229;28;20027;-62
2023/09/27 11:31:38;;;;;;;4.60;2.88;;;;;;;;;;5095016;28;20048;-62
2023/09/27 11:34:12;;;;;;;6.18;3.15;;;;;;;;;;5095046;28;20046;-62
2023/09/27 11:36:44;;;;;;;4.85;2.83;;;;;;;;;;5093852;28;20031;-62
2023/09/27 11:39:10;;;;;;;3.10;2.80;;;;;;;;;;5095212;28;20394;-62
2023/09/27 11:41:36;;;;;;;5.07;2.67;;;;;;;;;;5094952;28;20024;-62
2023/09/27 11:44:17;;;;;;;5.70;3.05;;;;;;;;;;5094836;28;20031;-62
2023/09/27 11:46:43;;;;;;;3.40;3.08;;;;;;;;;;5094821;28;20032;-62
2023/09/27 11:49:09;;;;;;;4.28;2.97;;;;;;;;;;5094763;28;20024;-62
2023/09/27 11:51:35;;;;;;;3.55;2.92;;;;;;;;;;5094758;28;20024;-62
2023/09/27 11:54:01;;;;;;;3.55;2.78;;;;;;;;;;5094667;28;20031;-62
2023/09/27 11:56:26;;;;;;;3.22;2.95;;;;;;;;;;5076462;28;20055;-62
2023/09/27 11:58:52;;;;;;;3.08;2.40;;;;;;;;;;5094637;28;20040;-62
2023/09/27 12:01:17;;;;;;;6.53;2.85;;;;;;;;;;5094506;28;20449;-62
2023/09/27 12:03:42;;;;;;;3.63;2.67;;;;;;;;;;5094442;28;20507;-62
2023/09/27 12:06:09;;;;;;;7.35;3.33;;;;;;;;;;5094506;28;20359;-62
2023/09/27 12:08:36;;;;;;;2.83;2.55;;;;;;;;;;5094203;28;20021;-62
2023/09/27 12:11:02;;;;;;;5.05;3.10;;;;;;;;;;5094177;28;20035;-62
2023/09/27 12:13:28;;;;;;;5.80;3.60;;;;;;;;;;5093421;28;20482;-62
2023/09/27 12:15:53;;;;;;;4.03;3.03;;;;;;;;;;5094886;28;20020;-62
2023/09/27 12:18:19;;;;;;;4.07;2.83;;;;;;;;;;5093378;28;20081;-62
2023/09/27 12:20:45;;;;;;;3.47;3.05;;;;;;;;;;5094709;28;20024;-62
2023/09/27 12:23:10;;;;;;;5.15;3.50;;;;;;;;;;5095048;28;20024;-62
2023/09/27 12:25:36;;;;;;;4.90;3.63;;;;;;;;;;5095031;28;20081;-62
2023/09/27 12:28:03;;;;;;;3.78;2.80;;;;;;;;;;5094672;28;20051;-62
2023/09/27 12:30:28;;;;;;;3.63;2.63;;;;;;;;;;5094300;28;20027;-62
2023/09/27 12:32:55;;;;;;;2.88;2.40;;;;;;;;;;5094135;28;20040;-62
2023/09/27 12:35:20;;;;;;;4.68;2.40;;;;;;;;;;5094264;28;20103;-62
2023/09/27 12:37:46;;;;;;;2.63;2.42;;;;;;;;;;5094787;28;20059;-62
2023/09/27 12:40:13;;;;;;;7.70;2.70;;;;;;;;;;5094124;28;20036;-62
2023/09/27 12:42:39;;;;;;;4.80;2.70;;;;;;;;;;5094180;28;20027;-62
2023/09/27 12:45:06;;;;;;;5.70;2.75;;;;;;;;;;5094086;28;20032;-62
2023/09/27 12:47:32;;;;;;;5.88;3.10;;;;;;;;;;5094340;28;20122;-62
2023/09/27 12:49:58;;;;;;;4.22;3.30;;;;;;;;;;5094063;28;20098;-62
2023/09/27 12:52:23;;;;;;;7.03;3.40;;;;;;;;;;5094112;28;20028;-62
2023/09/27 12:54:49;;;;;;;5.43;3.80;;;;;;;;;;5093779;28;20058;-62
2023/09/27 12:57:14;;;;;;;6.80;3.60;;;;;;;;;;5094187;28;20082;-63
2023/09/27 12:59:39;;;;;;;5.30;3.25;;;;;;;;;;5093798;28;20016;-63
2023/09/27 13:02:06;;;;;;;6.43;3.45;;;;;;;;;;5093884;28;20422;-63
2023/09/27 13:04:31;;;;;;;4.15;3.60;;;;;;;;;;5093960;28;20031;-63
2023/09/27 13:06:57;;;;;;;5.15;3.67;;;;;;;;;;5093876;28;20378;-63
2023/09/27 13:09:22;;;;;;;4.93;3.95;;;;;;;;;;5093685;28;20073;-63
2023/09/27 13:11:48;;;;;;;3.63;3.30;;;;;;;;;;5093926;28;20054;-63
2023/09/27 13:14:14;;;;;;;5.43;3.47;;;;;;;;;;5093940;28;20031;-63
2023/09/27 13:16:41;;;;;;;3.22;2.92;;;;;;;;;;5093918;28;20024;-63
2023/09/27 13:19:08;;;;;;;4.65;2.80;;;;;;;;;;5093619;28;20032;-63
2023/09/27 13:21:33;;;;;;;4.07;2.90;;;;;;;;;;5095025;28;20056;-63
2023/09/27 13:23:59;;;;;;;5.78;3.60;;;;;;;;;;5098183;28;20390;-57
2023/09/27 13:26:25;;;;;;;3.70;3.10;;;;;;;;;;5097775;28;20032;-57
2023/09/27 13:28:51;;;;;;;3.85;3.35;;;;;;;;;;5097767;28;20028;-57
2023/09/27 13:31:16;;;;;;;6.97;3.03;;;;;;;;;;5098187;28;20089;-58
2023/09/27 13:33:42;;;;;;;4.05;3.47;;;;;;;;;;5096989;28;20076;-57
2023/09/27 13:36:07;;;;;;;5.20;3.10;;;;;;;;;;5097998;28;20068;-57
2023/09/27 13:38:33;;;;;;;3.08;2.80;;;;;;;;;;5097616;28;20481;-57
2023/09/27 13:40:59;;;;;;;4.95;3.50;;;;;;;;;;5098105;28;20032;-57
2023/09/27 13:43:24;;;;;;;4.55;3.50;;;;;;;;;;5079480;28;20014;-57
2023/09/27 13:45:51;;;;;;;6.00;3.33;;;;;;;;;;5095958;28;20024;-57
2023/09/27 13:48:16;;;;;;;3.05;2.83;;;;;;;;;;5097871;28;20138;-57
2023/09/27 13:50:42;;;;;;;3.78;3.40;;;;;;;;;;5079259;28;20055;-57
2023/09/27 13:53:07;;;;;;;6.85;3.05;;;;;;;;;;5097479;28;20052;-57
2023/09/27 13:55:32;;;;;;;4.65;3.28;;;;;;;;;;5097302;28;20482;-57
2023/09/27 13:57:58;;;;;;;4.07;3.47;;;;;;;;;;5097292;28;20093;-57
2023/09/27 14:00:23;;;;;;;4.80;3.30;;;;;;;;;;5097098;28;20523;-57
2023/09/27 14:02:48;;;;;;;5.07;3.08;;;;;;;;;;5097190;28;20031;-57
2023/09/27 14:05:15;;;;;;;3.40;2.80;;;;;;;;;;5097579;28;20035;-57
2023/09/27 14:07:42;;;;;;;7.18;3.45;;;;;;;;;;5096485;28;20028;-57
2023/09/27 14:10:08;;;;;;;4.72;4.18;;;;;;;;;;5097048;28;20032;-57
2023/09/27 14:12:33;;;;;;;8.32;4.57;;;;;;;;;;5096951;28;20454;-57
2023/09/27 14:14:58;;;;;;;7.63;4.75;;;;;;;;;;5097090;28;20027;-62
2023/09/27 14:17:24;;;;;;;7.70;4.70;;;;;;;;;;5095521;28;20498;-62
2023/09/27 14:19:49;;;;;;;4.43;4.13;;;;;;;;;;5097593;28;20058;-62
2023/09/27 14:22:15;;;;;;;10.10;4.43;;;;;;;;;;5079348;28;20335;-62
2023/09/27 14:24:41;;;;;;;6.38;4.55;;;;;;;;;;5097446;28;20016;-62
2023/09/27 14:27:07;;;;;;;6.88;4.20;;;;;;;;;;5097132;28;20028;-62
2023/09/27 14:29:35;;;;;;;4.72;4.30;;;;;;;;;;5096735;28;20107;-62
2023/09/27 14:32:04;;;;;;;6.95;4.18;;;;;;;;;;5095108;28;20052;-62
2023/09/27 14:34:33;;;;;;;8.20;4.30;;;;;;;;;;5095609;28;20450;-62
2023/09/27 14:36:59;;;;;;;5.82;4.65;;;;;;;;;;5077458;28;20036;-62